createdAt,value
2019-01-25T00:01:37.208Z,30.27
2019-01-25T00:04:09.280Z,32.33
2019-01-25T00:06:41.016Z,29.73
2019-01-25T00:09:12.723Z,28.93
2019-01-25T00:11:44.464Z,29.40
2019-01-25T00:14:16.244Z,30.00
2019-01-25T00:16:47.978Z,28.17
2019-01-25T00:19:19.676Z,31.23
2019-01-25T00:21:51.399Z,28.50
2019-01-25T00:24:23.127Z,30.30
2019-01-25T00:26:54.912Z,28.13
2019-01-25T00:29:26.691Z,29.27
2019-01-25T00:31:58.410Z,26.77
2019-01-25T00:34:30.124Z,27.73
2019-01-25T00:37:01.840Z,28.87
2019-01-25T00:39:33.573Z,28.33
2019-01-25T00:42:05.288Z,28.63
2019-01-25T00:44:37.092Z,29.20
2019-01-25T00:47:08.983Z,30.00
2019-01-25T00:49:40.987Z,30.13
2019-01-25T00:52:12.696Z,29.40
2019-01-25T00:54:44.507Z,29.57
2019-01-25T00:57:16.524Z,26.93
2019-01-25T00:59:48.251Z,27.33
2019-01-25T01:02:19.972Z,28.60
2019-01-25T01:04:51.684Z,28.93
2019-01-25T01:07:23.412Z,28.53
2019-01-25T01:09:55.121Z,30.60
2019-01-25T01:12:26.858Z,30.20
2019-01-25T01:14:58.560Z,28.20
2019-01-25T01:17:30.364Z,31.93
2019-01-25T01:20:02.066Z,29.00
2019-01-25T01:22:33.803Z,30.80
2019-01-25T01:25:06.347Z,30.77
2019-01-25T01:27:38.138Z,30.33
2019-01-25T01:30:17.239Z,30.10
2019-01-25T01:32:49.233Z,29.60
2019-01-25T01:35:20.980Z,29.17
2019-01-25T01:37:53.332Z,28.57
2019-01-25T01:40:25.291Z,31.07
2019-01-25T01:42:57.009Z,29.83
2019-01-25T01:45:29.563Z,29.20
2019-01-25T01:48:01.509Z,29.93
2019-01-25T01:50:33.289Z,29.43
2019-01-25T01:53:05.146Z,30.17
2019-01-25T01:55:37.619Z,29.70
2019-01-25T01:58:09.404Z,29.13
2019-01-25T02:00:41.117Z,30.53
2019-01-25T02:03:13.024Z,29.80
2019-01-25T02:05:44.738Z,27.33
2019-01-25T02:08:16.456Z,29.50
2019-01-25T02:10:48.165Z,29.33
2019-01-25T02:13:19.886Z,30.80
2019-01-25T02:15:51.600Z,30.03
2019-01-25T02:18:23.329Z,30.23
2019-01-25T02:20:55.319Z,28.60
2019-01-25T02:23:27.042Z,27.27
2019-01-25T02:25:58.771Z,28.87
2019-01-25T02:28:30.476Z,27.53
2019-01-25T02:31:02.196Z,28.17
2019-01-25T02:33:34.214Z,28.67
2019-01-25T02:36:06.586Z,29.00
2019-01-25T02:38:38.311Z,27.93
2019-01-25T02:41:10.036Z,27.73
2019-01-25T02:43:41.745Z,27.83
2019-01-25T02:46:13.470Z,27.43
2019-01-25T02:48:45.174Z,28.13
2019-01-25T02:51:16.949Z,28.60
2019-01-25T02:53:48.693Z,26.87
2019-01-25T02:56:20.408Z,26.60
2019-01-25T02:58:52.128Z,27.50
2019-01-25T03:01:23.857Z,27.83
2019-01-25T03:03:55.931Z,28.37
2019-01-25T03:06:27.720Z,29.07
2019-01-25T03:08:59.434Z,27.93
2019-01-25T03:11:31.197Z,27.97
2019-01-25T03:14:02.917Z,27.23
2019-01-25T03:16:34.648Z,28.70
2019-01-25T03:19:06.369Z,26.90
2019-01-25T03:21:38.085Z,26.80
2019-01-25T03:24:09.821Z,26.33
2019-01-25T03:26:41.534Z,27.53
2019-01-25T03:29:13.217Z,25.57
2019-01-25T03:31:44.910Z,26.40
2019-01-25T03:34:16.609Z,25.67
2019-01-25T03:36:48.328Z,27.17
2019-01-25T03:39:20.041Z,26.77
2019-01-25T03:41:51.759Z,27.73
2019-01-25T03:44:23.458Z,25.70
2019-01-25T03:46:55.190Z,26.97
2019-01-25T03:49:26.871Z,28.33
2019-01-25T03:51:58.558Z,28.23
2019-01-25T03:54:30.307Z,27.60
2019-01-25T03:57:01.958Z,26.60
2019-01-25T03:59:33.682Z,27.83
2019-01-25T04:02:05.372Z,24.90
2019-01-25T04:04:37.417Z,26.27
2019-01-25T04:07:09.119Z,26.03
2019-01-25T04:09:40.837Z,25.60
2019-01-25T04:12:12.569Z,25.53
2019-01-25T04:14:44.256Z,28.60
2019-01-25T04:17:15.932Z,27.27
2019-01-25T04:19:47.635Z,27.70
2019-01-25T04:22:19.412Z,27.17
2019-01-25T04:24:51.178Z,28.70
2019-01-25T04:27:23.234Z,27.13
2019-01-25T04:29:55.020Z,26.37
2019-01-25T04:32:26.739Z,27.60
2019-01-25T04:34:58.455Z,28.37
2019-01-25T04:37:30.306Z,28.67
2019-01-25T04:40:02.460Z,28.50
2019-01-25T04:42:34.507Z,29.53
2019-01-25T04:45:10.891Z,28.13
2019-01-25T04:47:42.788Z,27.60
2019-01-25T04:50:25.210Z,27.43
2019-01-25T04:52:57.004Z,27.37
2019-01-25T04:55:32.798Z,28.00
2019-01-25T04:58:09.295Z,27.50
2019-01-25T05:00:41.291Z,30.50
2019-01-25T05:03:13.045Z,27.57
2019-01-25T05:05:44.810Z,28.67
2019-01-25T05:08:19.736Z,27.77
2019-01-25T05:10:52.137Z,27.10
2019-01-25T05:13:24.208Z,29.30
2019-01-25T05:15:55.910Z,29.03
2019-01-25T05:18:27.581Z,28.27
2019-01-25T05:20:59.362Z,27.57
2019-01-25T05:23:31.445Z,28.17
2019-01-25T05:26:03.472Z,27.07
2019-01-25T05:28:36.736Z,29.47
2019-01-25T05:31:08.883Z,28.37
2019-01-25T05:33:41.837Z,28.27
2019-01-25T05:36:13.883Z,28.10
2019-01-25T05:38:47.049Z,27.87
2019-01-25T05:41:19.063Z,26.53
2019-01-25T05:43:50.740Z,27.83
2019-01-25T05:46:23.506Z,28.40
2019-01-25T05:48:55.653Z,28.10
2019-01-25T05:51:33.630Z,29.27
2019-01-25T05:54:00.817Z,29.43
2019-01-25T05:56:32.895Z,30.00
2019-01-25T05:59:04.949Z,30.27
2019-01-25T06:01:38.562Z,29.70
2019-01-25T06:04:10.713Z,28.27
2019-01-25T06:06:42.679Z,27.43
2019-01-25T06:09:20.495Z,28.83
2019-01-25T06:11:52.257Z,27.57
2019-01-25T06:14:23.938Z,28.43
2019-01-25T06:16:55.638Z,26.87
2019-01-25T06:19:28.970Z,27.00
2019-01-25T06:22:00.917Z,27.23
2019-01-25T06:24:32.606Z,29.03
2019-01-25T06:27:04.358Z,28.10
2019-01-25T06:29:36.405Z,28.37
2019-01-25T06:32:08.092Z,27.60
2019-01-25T06:34:39.800Z,28.93
2019-01-25T06:37:11.481Z,28.57
2019-01-25T06:39:43.156Z,29.33
2019-01-25T06:42:14.896Z,30.60
2019-01-25T06:44:46.954Z,28.50
2019-01-25T06:47:18.803Z,29.03
2019-01-25T06:49:50.496Z,29.37
2019-01-25T06:52:22.177Z,28.53
2019-01-25T06:54:53.869Z,31.80
2019-01-25T06:57:27.493Z,29.73
2019-01-25T06:59:59.201Z,30.40
2019-01-25T07:02:31.234Z,33.07
2019-01-25T07:05:02.944Z,31.90
2019-01-25T07:07:35.311Z,29.23
2019-01-25T07:10:11.906Z,28.60
2019-01-25T07:12:43.592Z,29.87
2019-01-25T07:15:16.948Z,30.67
2019-01-25T07:17:48.694Z,31.27
2019-01-25T07:20:20.404Z,30.53
2019-01-25T07:22:52.780Z,30.43
2019-01-25T07:25:24.478Z,30.10
2019-01-25T07:27:56.162Z,29.60
2019-01-25T07:30:27.920Z,30.87
2019-01-25T07:32:59.630Z,29.30
2019-01-25T07:35:31.766Z,28.93
2019-01-25T07:38:03.522Z,30.53
2019-01-25T07:40:35.235Z,31.17
2019-01-25T07:43:06.920Z,30.77
2019-01-25T07:45:38.624Z,29.33
2019-01-25T07:48:10.324Z,30.77
2019-01-25T07:50:43.584Z,30.13
2019-01-25T07:53:15.314Z,31.07
2019-01-25T07:55:46.985Z,29.97
2019-01-25T07:58:18.726Z,30.53
2019-01-25T08:00:51.290Z,30.47
2019-01-25T08:03:23.580Z,30.70
2019-01-25T08:05:55.358Z,31.53
2019-01-25T08:08:27.215Z,31.67
2019-01-25T08:10:58.926Z,32.07
2019-01-25T08:13:30.677Z,30.20
2019-01-25T08:16:02.643Z,31.87
2019-01-25T08:18:35.207Z,31.97
2019-01-25T08:21:06.956Z,32.13
2019-01-25T08:23:39.518Z,31.37
2019-01-25T08:26:11.326Z,32.10
2019-01-25T08:28:43.102Z,32.57
2019-01-25T08:31:15.197Z,32.53
2019-01-25T08:33:46.879Z,31.90
2019-01-25T08:36:18.894Z,33.60
2019-01-25T08:38:50.640Z,33.83
2019-01-25T08:41:22.352Z,33.17
2019-01-25T08:43:54.282Z,32.97
2019-01-25T08:46:25.993Z,32.07
2019-01-25T08:48:57.691Z,34.37
2019-01-25T08:51:29.461Z,30.70
2019-01-25T08:54:01.154Z,32.83
2019-01-25T08:56:32.815Z,31.33
2019-01-25T08:59:04.874Z,33.00
2019-01-25T09:01:36.580Z,34.33
2019-01-25T09:04:08.265Z,32.40
2019-01-25T09:06:39.941Z,32.37
2019-01-25T09:09:11.652Z,32.97
2019-01-25T09:11:43.743Z,32.80
2019-01-25T09:14:15.429Z,33.27
2019-01-25T09:16:47.114Z,33.30
2019-01-25T09:19:18.831Z,33.57
2019-01-25T09:21:50.774Z,33.07
2019-01-25T09:24:22.458Z,33.90
2019-01-25T09:26:54.468Z,32.70
2019-01-25T09:29:26.147Z,34.27
2019-01-25T09:31:57.848Z,33.93
2019-01-25T09:34:29.539Z,31.93
2019-01-25T09:37:01.452Z,30.93
2019-01-25T09:39:33.122Z,33.40
2019-01-25T09:42:04.834Z,31.90
2019-01-25T09:44:36.516Z,32.13
2019-01-25T09:47:08.200Z,33.87
2019-01-25T09:49:39.895Z,33.67
2019-01-25T09:52:11.570Z,32.50
2019-01-25T09:54:43.246Z,32.60
2019-01-25T09:57:15.287Z,32.47
2019-01-25T09:59:46.987Z,31.43
2019-01-25T10:02:18.685Z,31.33
2019-01-25T10:04:50.390Z,30.43
2019-01-25T10:07:22.069Z,32.17
2019-01-25T10:09:53.776Z,33.30
2019-01-25T10:12:25.457Z,32.27
2019-01-25T10:14:57.184Z,31.67
2019-01-25T10:17:28.876Z,35.17
2019-01-25T10:20:00.579Z,32.87
2019-01-25T10:22:32.272Z,31.63
2019-01-25T10:25:05.807Z,32.37
2019-01-25T10:27:37.496Z,32.70
2019-01-25T10:30:16.545Z,31.23
2019-01-25T10:32:48.414Z,32.43
2019-01-25T10:35:20.240Z,32.07
2019-01-25T10:37:52.932Z,31.07
2019-01-25T10:40:25.535Z,31.23
2019-01-25T10:42:57.221Z,30.67
2019-01-25T10:45:39.443Z,31.23
2019-01-25T10:48:11.880Z,30.40
2019-01-25T10:50:43.881Z,29.90
2019-01-25T10:53:15.590Z,30.53
2019-01-25T10:55:47.818Z,29.93
2019-01-25T10:58:19.569Z,28.60
2019-01-25T11:00:51.456Z,29.70
2019-01-25T11:03:23.297Z,30.23
2019-01-25T11:05:55.025Z,30.50
2019-01-25T11:08:26.805Z,29.33
2019-01-25T11:10:58.488Z,29.07
2019-01-25T11:13:30.355Z,29.87
2019-01-25T11:16:02.171Z,28.73
2019-01-25T11:18:34.412Z,30.20
2019-01-25T11:21:06.091Z,29.57
2019-01-25T11:23:37.795Z,28.40
2019-01-25T11:26:09.493Z,28.47
2019-01-25T11:28:41.170Z,28.83
2019-01-25T11:31:13.141Z,28.77
2019-01-25T11:33:44.823Z,28.37
2019-01-25T11:36:16.517Z,27.10
2019-01-25T11:38:48.476Z,29.77
2019-01-25T11:41:20.165Z,27.90
2019-01-25T11:43:51.886Z,28.30
2019-01-25T11:46:23.645Z,26.63
2019-01-25T11:48:55.956Z,27.03
2019-01-25T11:51:27.685Z,26.70
2019-01-25T11:53:59.350Z,28.00
2019-01-25T11:56:31.311Z,27.33
2019-01-25T11:59:03.145Z,27.50
2019-01-25T12:01:35.624Z,27.30
2019-01-25T12:04:07.828Z,27.90
2019-01-25T12:06:39.524Z,27.77
2019-01-25T12:09:11.547Z,28.03
2019-01-25T12:11:43.273Z,26.73
2019-01-25T12:14:15.042Z,26.83
2019-01-25T12:16:46.723Z,27.63
2019-01-25T12:19:18.412Z,26.10
2019-01-25T12:21:50.115Z,27.30
2019-01-25T12:24:21.974Z,27.97
2019-01-25T12:26:53.932Z,27.37
2019-01-25T12:29:25.745Z,26.67
2019-01-25T12:31:57.763Z,26.47
2019-01-25T12:34:29.454Z,25.20
2019-01-25T12:37:04.707Z,27.10
2019-01-25T12:39:34.847Z,25.63
2019-01-25T12:42:06.550Z,25.40
2019-01-25T12:44:38.367Z,24.77
2019-01-25T12:47:10.312Z,26.77
2019-01-25T12:49:42.057Z,24.20
2019-01-25T12:52:13.764Z,26.30
2019-01-25T12:54:45.546Z,26.27
2019-01-25T12:57:17.500Z,24.97
2019-01-25T12:59:49.240Z,26.40
2019-01-25T13:02:21.538Z,24.63
2019-01-25T13:04:53.227Z,24.00
2019-01-25T13:07:25.600Z,24.53
2019-01-25T13:09:57.325Z,25.37
2019-01-25T13:12:29.018Z,25.13
2019-01-25T13:15:02.353Z,23.80
2019-01-25T13:17:34.032Z,22.07
2019-01-25T13:20:10.602Z,25.70
2019-01-25T13:22:42.394Z,23.77
2019-01-25T13:25:14.101Z,22.50
2019-01-25T13:27:45.892Z,22.13
2019-01-25T13:30:21.561Z,22.37
2019-01-25T13:32:53.603Z,22.90
2019-01-25T13:35:25.287Z,22.07
2019-01-25T13:37:57.047Z,20.10
2019-01-25T13:40:29.473Z,20.33
2019-01-25T13:43:01.161Z,20.87
2019-01-25T13:45:32.844Z,19.93
2019-01-25T13:48:04.545Z,20.73
2019-01-25T13:50:37.239Z,18.07
2019-01-25T13:53:08.931Z,21.53
2019-01-25T13:55:40.629Z,21.77
2019-01-25T13:58:12.323Z,21.97
2019-01-25T14:00:44.580Z,20.73
2019-01-25T14:03:16.269Z,21.43
2019-01-25T14:05:47.947Z,21.20
2019-01-25T14:08:21.437Z,21.47
2019-01-25T14:10:53.243Z,20.70
2019-01-25T14:13:24.934Z,20.93
2019-01-25T14:15:57.113Z,20.37
2019-01-25T14:18:28.819Z,20.37
2019-01-25T14:21:00.503Z,19.13
2019-01-25T14:23:32.211Z,22.87
2019-01-25T14:26:03.962Z,19.33
2019-01-25T14:28:35.669Z,20.83
2019-01-25T14:31:07.685Z,18.87
2019-01-25T14:33:39.814Z,20.83
2019-01-25T14:36:11.511Z,20.37
2019-01-25T14:38:43.224Z,18.00
2019-01-25T14:41:15.189Z,21.00
2019-01-25T14:43:54.232Z,21.60
2019-01-25T14:46:20.588Z,20.00
2019-01-25T14:48:53.925Z,21.93
2019-01-25T14:51:25.604Z,18.67
2019-01-25T14:53:57.320Z,19.20
2019-01-25T14:56:29.313Z,21.77
2019-01-25T14:59:01.190Z,30.87
2019-01-25T15:01:33.145Z,23.60
2019-01-25T15:04:04.888Z,18.80
2019-01-25T15:06:36.821Z,28.67
2019-01-25T15:09:09.890Z,24.50
2019-01-25T15:11:41.574Z,19.13
2019-01-25T15:14:13.296Z,25.87
2019-01-25T15:16:45.054Z,20.73
2019-01-25T15:19:16.745Z,17.70
2019-01-25T15:21:48.762Z,20.47
2019-01-25T15:24:20.512Z,18.93
2019-01-25T15:26:52.189Z,17.67
2019-01-25T15:29:23.879Z,18.00
2019-01-25T15:31:55.560Z,17.03
2019-01-25T15:34:27.291Z,15.93
2019-01-25T15:36:58.991Z,18.17
2019-01-25T15:39:30.729Z,18.07
2019-01-25T15:42:02.479Z,20.17
2019-01-25T15:44:34.178Z,18.53
2019-01-25T15:47:05.848Z,19.57
2019-01-25T15:49:37.555Z,19.87
2019-01-25T15:52:09.245Z,20.67
2019-01-25T15:54:41.075Z,19.73
2019-01-25T15:57:13.021Z,20.50
2019-01-25T15:59:44.795Z,23.20
2019-01-25T16:02:16.777Z,26.20
2019-01-25T16:04:48.464Z,22.77
2019-01-25T16:07:20.669Z,23.60
2019-01-25T16:09:52.364Z,22.43
2019-01-25T16:12:24.044Z,22.47
2019-01-25T16:14:55.988Z,23.17
2019-01-25T16:17:27.886Z,22.00
2019-01-25T16:19:59.587Z,21.73
2019-01-25T16:22:31.306Z,23.40
2019-01-25T16:25:03.090Z,20.87
2019-01-25T16:27:35.082Z,23.60
2019-01-25T16:30:14.346Z,22.00
2019-01-25T16:32:46.085Z,22.63
2019-01-25T16:35:17.789Z,22.53
2019-01-25T16:37:49.463Z,23.67
2019-01-25T16:40:27.946Z,23.23
2019-01-25T16:43:00.196Z,22.47
2019-01-25T16:45:40.556Z,24.13
2019-01-25T16:48:12.288Z,22.80
2019-01-25T16:50:43.955Z,26.70
2019-01-25T16:53:15.673Z,23.83
2019-01-25T16:55:47.352Z,23.60
2019-01-25T16:58:19.038Z,22.77
2019-01-25T17:00:50.985Z,21.50
2019-01-25T17:03:22.679Z,22.70
2019-01-25T17:05:54.426Z,21.93
2019-01-25T17:08:26.469Z,22.97
2019-01-25T17:10:58.153Z,22.27
2019-01-25T17:13:29.973Z,22.67
2019-01-25T17:16:01.654Z,22.27
2019-01-25T17:18:33.434Z,22.80
2019-01-25T17:21:05.215Z,23.83
2019-01-25T17:23:37.232Z,22.70
2019-01-25T17:26:08.930Z,23.77
2019-01-25T17:28:40.616Z,24.40
2019-01-25T17:31:12.326Z,24.00
2019-01-25T17:33:44.369Z,23.90
2019-01-25T17:36:16.131Z,24.27
2019-01-25T17:38:47.827Z,23.43
2019-01-25T17:41:19.515Z,22.63
2019-01-25T17:43:51.206Z,26.03
2019-01-25T17:46:22.886Z,24.00
2019-01-25T17:48:54.649Z,24.63
2019-01-25T17:51:27.279Z,24.10
2019-01-25T17:53:59.221Z,24.23
2019-01-25T17:56:30.916Z,25.77
2019-01-25T17:59:02.625Z,24.60
2019-01-25T18:01:34.308Z,26.50
2019-01-25T18:04:06.009Z,25.57
2019-01-25T18:06:37.697Z,25.63
2019-01-25T18:09:09.408Z,26.03
2019-01-25T18:11:41.082Z,26.77
2019-01-25T18:14:12.779Z,26.50
2019-01-25T18:16:44.459Z,26.67
2019-01-25T18:19:16.148Z,27.80
2019-01-25T18:21:47.833Z,27.13
2019-01-25T18:24:19.852Z,26.97
2019-01-25T18:26:51.538Z,28.53
2019-01-25T18:29:23.302Z,27.40
2019-01-25T18:31:54.990Z,27.87
2019-01-25T18:34:26.679Z,28.40
2019-01-25T18:36:58.364Z,29.03
2019-01-25T18:39:30.062Z,28.67
2019-01-25T18:42:01.749Z,27.83
2019-01-25T18:44:33.435Z,30.17
2019-01-25T18:47:05.188Z,30.73
2019-01-25T18:49:36.891Z,31.67
2019-01-25T18:52:08.567Z,31.00
2019-01-25T18:54:40.262Z,31.07
2019-01-25T18:57:11.937Z,32.07
2019-01-25T18:59:44.584Z,30.17
2019-01-25T19:02:17.688Z,31.03
2019-01-25T19:04:49.376Z,31.63
2019-01-25T19:07:21.064Z,31.57
2019-01-25T19:09:52.764Z,34.00
2019-01-25T19:12:24.510Z,31.50
2019-01-25T19:14:56.472Z,31.90
2019-01-25T19:17:29.158Z,32.40
2019-01-25T19:20:00.863Z,31.07
2019-01-25T19:22:32.553Z,32.13
2019-01-25T19:25:06.878Z,32.10
2019-01-25T19:27:38.643Z,29.83
2019-01-25T19:30:18.196Z,31.97
2019-01-25T19:32:51.167Z,31.23
2019-01-25T19:35:22.841Z,32.60
2019-01-25T19:37:54.900Z,31.20
2019-01-25T19:40:33.424Z,30.90
2019-01-25T19:43:06.314Z,31.80
2019-01-25T19:45:37.998Z,31.90
2019-01-25T19:48:09.743Z,31.70
2019-01-25T19:50:41.445Z,31.87
2019-01-25T19:53:16.806Z,34.10
2019-01-25T19:55:48.496Z,31.87
2019-01-25T19:58:20.196Z,32.53
2019-01-25T20:00:51.975Z,34.00
2019-01-25T20:03:23.729Z,33.70
2019-01-25T20:05:55.480Z,33.33
2019-01-25T20:08:27.238Z,32.90
2019-01-25T20:10:58.918Z,34.37
2019-01-25T20:13:31.443Z,32.77
2019-01-25T20:16:03.134Z,35.17
2019-01-25T20:18:34.891Z,34.80
2019-01-25T20:21:06.583Z,35.57
2019-01-25T20:23:39.151Z,34.30
2019-01-25T20:26:10.825Z,35.70
2019-01-25T20:28:42.579Z,37.00
2019-01-25T20:31:14.270Z,37.03
2019-01-25T20:33:46.021Z,37.73
2019-01-25T20:36:17.707Z,37.37
2019-01-25T20:38:49.698Z,38.90
2019-01-25T20:41:21.653Z,38.37
2019-01-25T20:43:53.326Z,38.17
2019-01-25T20:46:25.278Z,39.40
2019-01-25T20:48:56.958Z,39.20
2019-01-25T20:51:28.658Z,39.23
2019-01-25T20:54:00.411Z,42.63
2019-01-25T20:56:32.126Z,40.10
2019-01-25T20:59:03.819Z,42.60
2019-01-25T21:01:35.507Z,39.13
2019-01-25T21:04:08.306Z,39.67
2019-01-25T21:06:40.090Z,40.83
2019-01-25T21:09:11.834Z,40.13
2019-01-25T21:11:43.548Z,40.30
2019-01-25T21:14:15.654Z,39.40
2019-01-25T21:16:47.347Z,40.27
2019-01-25T21:19:19.022Z,39.10
2019-01-25T21:21:50.716Z,39.43
2019-01-25T21:24:22.389Z,40.60
2019-01-25T21:26:54.096Z,38.53
2019-01-25T21:29:25.808Z,36.97
2019-01-25T21:31:57.553Z,38.17
2019-01-25T21:34:29.336Z,39.23
2019-01-25T21:37:01.681Z,38.13
2019-01-25T21:39:35.031Z,37.20
2019-01-25T21:42:06.698Z,37.90
2019-01-25T21:44:38.463Z,37.50
2019-01-25T21:47:10.563Z,36.30
2019-01-25T21:49:42.303Z,38.70
2019-01-25T21:52:13.980Z,38.00
2019-01-25T21:54:45.671Z,38.27
2019-01-25T21:57:17.385Z,39.00
2019-01-25T21:59:49.083Z,38.23
2019-01-25T22:02:20.793Z,37.13
2019-01-25T22:04:52.521Z,35.47
2019-01-25T22:07:24.572Z,36.13
2019-01-25T22:09:56.605Z,37.43
2019-01-25T22:12:28.560Z,38.53
2019-01-25T22:15:00.250Z,37.17
2019-01-25T22:17:32.310Z,35.13
2019-01-25T22:20:07.455Z,33.80
2019-01-25T22:22:39.500Z,37.23
2019-01-25T22:25:12.632Z,36.60
2019-01-25T22:27:46.433Z,35.20
2019-01-25T22:30:21.253Z,35.13
2019-01-25T22:32:52.936Z,33.83
2019-01-25T22:35:25.048Z,37.13
2019-01-25T22:37:56.768Z,37.30
2019-01-25T22:40:30.437Z,35.43
2019-01-25T22:43:02.470Z,37.73
2019-01-25T22:45:34.159Z,36.00
2019-01-25T22:48:05.843Z,34.53
2019-01-25T22:50:37.536Z,34.40
2019-01-25T22:53:09.230Z,35.30
2019-01-25T22:55:40.911Z,33.50
2019-01-25T22:58:12.623Z,31.87
2019-01-25T23:01:00.431Z,33.77
2019-01-25T23:03:51.647Z,34.60
2019-01-25T23:06:40.124Z,35.00
2019-01-25T23:09:17.048Z,32.20
2019-01-25T23:11:49.175Z,32.93
2019-01-25T23:14:21.133Z,33.70
2019-01-25T23:16:52.820Z,33.33
2019-01-25T23:19:24.505Z,36.20
2019-01-25T23:21:56.328Z,34.63
2019-01-25T23:24:27.990Z,35.50
2019-01-25T23:26:59.780Z,35.50
2019-01-25T23:29:31.476Z,35.97
2019-01-25T23:32:03.946Z,36.43
2019-01-25T23:34:36.058Z,35.70
2019-01-25T23:37:07.812Z,37.47
2019-01-25T23:39:39.502Z,35.97
2019-01-25T23:42:11.672Z,36.70
2019-01-25T23:44:43.356Z,38.40
2019-01-25T23:47:15.059Z,35.77
2019-01-25T23:49:46.737Z,36.93
2019-01-25T23:52:18.443Z,36.43
2019-01-25T23:54:50.152Z,36.73
2019-01-25T23:57:22.146Z,36.87
2019-01-25T23:59:53.840Z,35.77
